Kellerton, IA (50133)

7:12 AM CDT on October 30, 2014 (GMT -0500)
Lamoni Municipal | Change Station
CLOSE
Current Station
Airport
Location: Lamoni,
Elevation: 1132 ft
Nearby Weather Stations

Elev 1132 ft 40.63 °N, 93.90 °W | Updated 19 minutes ago

Overcast
Overcast
44 °F
Feels Like 39 °F
N
9
Wind Variable Wind from South

Today
High -- | Low -- °F
--% Chance of Precip.
Yesterday
High -- | Low -- °F
Precip. -- in
7:44 AM 6:15 PM
Waxing Crescent, 43% visible
Pressure 30.00 in
Visibility 10.0 miles
Clouds Few 9000 ft
Few 11000 ft
Windchill 39 °F
Dew Point 36 °F
Humidity 73%
Rainfall 0.00 in
Snow Depth Not available.
UV 0 out of 12
Pollen .80 out of 12
Air Quality Not available.
Flu Activity Not available.
METAR KLWD 301153Z AUTO 17008KT 10SM FEW090 FEW110 07/02 A2998 RMK AO2 RAB12E46 SLP157 P0000 60000 T00670022 10072 20056 58021

More Conditions Fewer Conditions

Pressure 30.00 in
Visibility 10.0 miles
Clouds Few 9000 ft
Few 11000 ft
Windchill 39 °F
Dew Point 36 °F
Humidity 73%
Rainfall 0.00 in
Snow Depth Not available.
UV 0 out of 12
Pollen .80 out of 12
Air Quality Not available.
Flu Activity Not available.
METAR KLWD 301153Z AUTO 17008KT 10SM FEW090 FEW110 07/02 A2998 RMK AO2 RAB12E46 SLP157 P0000 60000 T00670022 10072 20056 58021

More Conditions Fewer Conditions

10-Day Weather Forecast

Almanac

Astronomy

Oct. 30, 2014 Rise Set
Actual Time
Civil Twilight
Nautical Twilight
Astronomical Twilight
Moon
Length of Visible Light
Length of Day
Tomorrow will be .
, % of the Moon is Illuminated

Today's Extremes

State Highs State Lows

Community

WunderPhotos

Upload Photos

1,766,349 photos uploaded!

WunderBlogs® & News

Nearby

Air Quality

  Air Quality AQ Index Pollutant
Not available.

Snow Depth

Station Depth Elevation

Earthquake Activity

City Distance Mag. Time & Date
Minimum magnitude displayed is 2.5.

Coastal Water Temperatures

Place Temperature

Nearby Weather Stations